sensor_id;sensor_type;location;lat;lon;timestamp;pressure;altitude;pressure_sealevel;temperature;humidity
42519;BME280;28147;47.520;18.920;2023-04-22T00:00:17;98238.25;;;16.03;42.41
42519;BME280;28147;47.520;18.920;2023-04-22T00:02:42;98245.66;;;16.32;41.53
42519;BME280;28147;47.520;18.920;2023-04-22T00:05:08;98240.41;;;15.96;43.50
42519;BME280;28147;47.520;18.920;2023-04-22T00:07:37;98236.38;;;15.93;44.30
42519;BME280;28147;47.520;18.920;2023-04-22T00:10:03;98242.00;;;15.97;43.40
42519;BME280;28147;47.520;18.920;2023-04-22T00:12:29;98238.53;;;15.86;44.48
42519;BME280;28147;47.520;18.920;2023-04-22T00:14:54;98244.72;;;15.81;44.91
42519;BME280;28147;47.520;18.920;2023-04-22T00:17:20;98240.44;;;15.70;45.84
42519;BME280;28147;47.520;18.920;2023-04-22T00:19:45;98238.56;;;15.76;44.36
42519;BME280;28147;47.520;18.920;2023-04-22T00:22:11;98243.38;;;15.89;44.77
42519;BME280;28147;47.520;18.920;2023-04-22T00:24:37;98239.06;;;15.93;44.90
42519;BME280;28147;47.520;18.920;2023-04-22T00:27:02;98242.31;;;15.80;46.12
42519;BME280;28147;47.520;18.920;2023-04-22T00:29:28;98246.81;;;16.05;45.61
42519;BME280;28147;47.520;18.920;2023-04-22T00:31:53;98235.31;;;15.89;43.86
42519;BME280;28147;47.520;18.920;2023-04-22T00:34:19;98246.31;;;15.93;43.69
42519;BME280;28147;47.520;18.920;2023-04-22T00:36:44;98240.09;;;16.08;43.28
42519;BME280;28147;47.520;18.920;2023-04-22T00:39:10;98235.53;;;15.98;44.00
42519;BME280;28147;47.520;18.920;2023-04-22T00:41:37;98233.38;;;16.05;44.06
42519;BME280;28147;47.520;18.920;2023-04-22T00:44:03;98233.94;;;16.02;44.54
42519;BME280;28147;47.520;18.920;2023-04-22T00:46:29;98232.31;;;16.06;44.80
42519;BME280;28147;47.520;18.920;2023-04-22T00:48:55;98234.72;;;16.08;45.15
42519;BME280;28147;47.520;18.920;2023-04-22T00:51:21;98235.59;;;15.88;46.80
42519;BME280;28147;47.520;18.920;2023-04-22T00:53:46;98231.25;;;16.07;45.43
42519;BME280;28147;47.520;18.920;2023-04-22T00:56:12;98231.25;;;16.02;45.85
42519;BME280;28147;47.520;18.920;2023-04-22T00:58:37;98232.28;;;16.16;45.84
42519;BME280;28147;47.520;18.920;2023-04-22T01:01:03;98233.13;;;16.01;45.43
42519;BME280;28147;47.520;18.920;2023-04-22T01:03:28;98242.50;;;16.09;45.42
42519;BME280;28147;47.520;18.920;2023-04-22T01:05:55;98236.59;;;16.02;46.31
42519;BME280;28147;47.520;18.920;2023-04-22T01:08:20;98242.50;;;16.09;46.69
42519;BME280;28147;47.520;18.920;2023-04-22T01:10:45;98241.50;;;15.85;47.48
42519;BME280;28147;47.520;18.920;2023-04-22T01:13:11;98246.06;;;15.79;47.17
42519;BME280;28147;47.520;18.920;2023-04-22T01:15:36;98246.88;;;15.54;47.06
42519;BME280;28147;47.520;18.920;2023-04-22T01:18:02;98240.69;;;15.64;47.05
42519;BME280;28147;47.520;18.920;2023-04-22T01:20:28;98243.38;;;15.48;48.06
42519;BME280;28147;47.520;18.920;2023-04-22T01:22:54;98245.81;;;15.50;47.65
42519;BME280;28147;47.520;18.920;2023-04-22T01:25:22;98249.81;;;15.47;48.09
42519;BME280;28147;47.520;18.920;2023-04-22T01:27:48;98256.25;;;15.41;48.04
42519;BME280;28147;47.520;18.920;2023-04-22T01:30:13;98255.97;;;15.63;46.22
42519;BME280;28147;47.520;18.920;2023-04-22T01:32:40;98253.88;;;15.65;46.92
42519;BME280;28147;47.520;18.920;2023-04-22T01:35:06;98250.91;;;15.72;45.94
42519;BME280;28147;47.520;18.920;2023-04-22T01:37:32;98250.63;;;15.63;45.01
42519;BME280;28147;47.520;18.920;2023-04-22T01:39:58;98253.56;;;15.62;44.98
42519;BME280;28147;47.520;18.920;2023-04-22T01:42:24;98254.09;;;15.64;45.65
42519;BME280;28147;47.520;18.920;2023-04-22T01:44:50;98253.28;;;15.63;45.34
42519;BME280;28147;47.520;18.920;2023-04-22T01:47:15;98255.47;;;15.66;45.84
42519;BME280;28147;47.520;18.920;2023-04-22T01:49:40;98245.81;;;15.65;45.94
42519;BME280;28147;47.520;18.920;2023-04-22T01:52:06;98254.13;;;15.69;46.88
42519;BME280;28147;47.520;18.920;2023-04-22T01:54:32;98259.75;;;15.62;46.88
42519;BME280;28147;47.520;18.920;2023-04-22T01:56:57;98253.28;;;15.53;47.05
42519;BME280;28147;47.520;18.920;2023-04-22T01:59:23;98256.81;;;15.53;47.18
42519;BME280;28147;47.520;18.920;2023-04-22T02:01:48;98252.75;;;15.56;46.14
42519;BME280;28147;47.520;18.920;2023-04-22T02:04:14;98245.78;;;15.60;45.67
42519;BME280;28147;47.520;18.920;2023-04-22T02:06:39;98250.09;;;15.61;45.15
42519;BME280;28147;47.520;18.920;2023-04-22T02:09:05;98251.41;;;15.79;44.88
42519;BME280;28147;47.520;18.920;2023-04-22T02:11:31;98243.13;;;15.65;46.50
42519;BME280;28147;47.520;18.920;2023-04-22T02:13:56;98249.56;;;15.69;45.23
42519;BME280;28147;47.520;18.920;2023-04-22T02:16:21;98238.56;;;15.81;43.05
42519;BME280;28147;47.520;18.920;2023-04-22T02:18:47;98249.22;;;16.01;43.37
42519;BME280;28147;47.520;18.920;2023-04-22T02:21:12;98250.56;;;16.09;43.39
42519;BME280;28147;47.520;18.920;2023-04-22T02:23:38;98247.34;;;16.12;43.28
42519;BME280;28147;47.520;18.920;2023-04-22T02:26:04;98246.56;;;16.07;42.91
42519;BME280;28147;47.520;18.920;2023-04-22T02:28:30;98245.97;;;16.20;42.19
42519;BME280;28147;47.520;18.920;2023-04-22T02:30:56;98242.19;;;16.26;42.02
42519;BME280;28147;47.520;18.920;2023-04-22T02:33:21;98250.47;;;16.35;41.17
42519;BME280;28147;47.520;18.920;2023-04-22T02:35:47;98247.56;;;16.26;42.60
42519;BME280;28147;47.520;18.920;2023-04-22T02:38:12;98236.06;;;16.05;43.65
42519;BME280;28147;47.520;18.920;2023-04-22T02:40:38;98236.34;;;16.09;43.37
42519;BME280;28147;47.520;18.920;2023-04-22T02:43:03;98240.34;;;16.11;43.10
42519;BME280;28147;47.520;18.920;2023-04-22T02:45:29;98235.25;;;16.15;43.87
42519;BME280;28147;47.520;18.920;2023-04-22T02:47:54;98238.50;;;15.96;44.27
42519;BME280;28147;47.520;18.920;2023-04-22T02:50:20;98241.47;;;16.00;42.86
42519;BME280;28147;47.520;18.920;2023-04-22T02:52:45;98243.38;;;15.74;43.11
42519;BME280;28147;47.520;18.920;2023-04-22T02:55:11;98236.41;;;15.78;41.84
42519;BME280;28147;47.520;18.920;2023-04-22T02:57:36;98241.53;;;15.69;42.94
42519;BME280;28147;47.520;18.920;2023-04-22T03:00:02;98240.72;;;15.53;43.68
42519;BME280;28147;47.520;18.920;2023-04-22T03:02:28;98239.88;;;15.63;42.25
42519;BME280;28147;47.520;18.920;2023-04-22T03:04:54;98236.09;;;15.64;42.44
42519;BME280;28147;47.520;18.920;2023-04-22T03:07:19;98234.53;;;15.73;41.34
42519;BME280;28147;47.520;18.920;2023-04-22T03:09:45;98243.94;;;15.76;41.51
42519;BME280;28147;47.520;18.920;2023-04-22T03:12:10;98233.16;;;15.61;42.15
42519;BME280;28147;47.520;18.920;2023-04-22T03:14:36;98244.16;;;15.64;41.95
42519;BME280;28147;47.520;18.920;2023-04-22T03:17:01;98242.84;;;15.41;43.03
42519;BME280;28147;47.520;18.920;2023-04-22T03:19:26;98249.53;;;15.28;43.07
42519;BME280;28147;47.520;18.920;2023-04-22T03:21:52;98247.66;;;15.29;43.46
42519;BME280;28147;47.520;18.920;2023-04-22T03:24:17;98236.94;;;15.14;44.06
42519;BME280;28147;47.520;18.920;2023-04-22T03:26:43;98249.53;;;15.33;44.51
42519;BME280;28147;47.520;18.920;2023-04-22T03:29:08;98246.59;;;15.25;44.68
42519;BME280;28147;47.520;18.920;2023-04-22T03:31:34;98251.69;;;15.31;43.57
42519;BME280;28147;47.520;18.920;2023-04-22T03:33:59;98247.41;;;15.25;44.31
42519;BME280;28147;47.520;18.920;2023-04-22T03:36:26;98238.03;;;15.23;44.61
42519;BME280;28147;47.520;18.920;2023-04-22T03:38:51;98252.19;;;15.03;44.78
42519;BME280;28147;47.520;18.920;2023-04-22T03:41:18;98254.34;;;15.11;43.63
42519;BME280;28147;47.520;18.920;2023-04-22T03:43:43;98253.84;;;15.24;43.21
42519;BME280;28147;47.520;18.920;2023-04-22T03:46:09;98256.38;;;14.58;45.31
42519;BME280;28147;47.520;18.920;2023-04-22T03:48:35;98255.41;;;15.00;42.96
42519;BME280;28147;47.520;18.920;2023-04-22T03:51:01;98258.38;;;15.19;42.25
42519;BME280;28147;47.520;18.920;2023-04-22T03:53:27;98253.53;;;14.85;43.70
42519;BME280;28147;47.520;18.920;2023-04-22T03:55:52;98257.34;;;15.35;41.56
42519;BME280;28147;47.520;18.920;2023-04-22T03:58:18;98261.88;;;15.14;41.84
42519;BME280;28147;47.520;18.920;2023-04-22T04:00:43;98267.75;;;15.06;42.75
42519;BME280;28147;47.520;18.920;2023-04-22T04:03:09;98261.81;;;14.83;45.42
42519;BME280;28147;47.520;18.920;2023-04-22T04:05:35;98267.19;;;14.94;45.38
42519;BME280;28147;47.520;18.920;2023-04-22T04:08:01;98258.56;;;14.76;45.63
42519;BME280;28147;47.520;18.920;2023-04-22T04:10:26;98268.28;;;14.93;45.30
42519;BME280;28147;47.520;18.920;2023-04-22T04:12:51;98253.25;;;14.81;45.96
42519;BME280;28147;47.520;18.920;2023-04-22T04:15:17;98273.03;;;14.75;46.48
42519;BME280;28147;47.520;18.920;2023-04-22T04:17:48;98264.22;;;14.75;44.00
42519;BME280;28147;47.520;18.920;2023-04-22T04:20:14;98267.69;;;14.75;45.84
42519;BME280;28147;47.520;18.920;2023-04-22T04:22:40;98279.53;;;15.00;45.06
42519;BME280;28147;47.520;18.920;2023-04-22T04:25:07;98277.31;;;14.71;45.55
42519;BME280;28147;47.520;18.920;2023-04-22T04:27:32;98278.06;;;14.62;45.54
42519;BME280;28147;47.520;18.920;2023-04-22T04:29:59;98281.13;;;14.86;45.35
42519;BME280;28147;47.520;18.920;2023-04-22T04:32:24;98275.28;;;15.04;46.17
42519;BME280;28147;47.520;18.920;2023-04-22T04:34:50;98287.38;;;15.37;46.05
42519;BME280;28147;47.520;18.920;2023-04-22T04:37:16;98285.19;;;15.08;44.75
42519;BME280;28147;47.520;18.920;2023-04-22T04:39:42;98287.84;;;14.98;45.42
42519;BME280;28147;47.520;18.920;2023-04-22T04:42:08;98286.25;;;15.02;45.45
42519;BME280;28147;47.520;18.920;2023-04-22T04:44:34;98286.53;;;15.06;45.24
42519;BME280;28147;47.520;18.920;2023-04-22T04:47:00;98288.72;;;15.19;44.96
42519;BME280;28147;47.520;18.920;2023-04-22T04:49:26;98295.16;;;15.23;46.66
42519;BME280;28147;47.520;18.920;2023-04-22T04:51:56;98288.38;;;14.95;46.13
42519;BME280;28147;47.520;18.920;2023-04-22T04:54:21;98296.78;;;15.35;45.48
42519;BME280;28147;47.520;18.920;2023-04-22T04:56:47;98290.84;;;15.17;45.73
42519;BME280;28147;47.520;18.920;2023-04-22T04:59:12;98292.47;;;15.49;43.57
42519;BME280;28147;47.520;18.920;2023-04-22T05:01:37;98303.25;;;15.95;41.79
42519;BME280;28147;47.520;18.920;2023-04-22T05:04:03;98287.88;;;16.16;41.58
42519;BME280;28147;47.520;18.920;2023-04-22T05:06:28;98293.75;;;16.28;41.72
42519;BME280;28147;47.520;18.920;2023-04-22T05:08:54;98295.66;;;16.22;41.73
42519;BME280;28147;47.520;18.920;2023-04-22T05:11:19;98304.13;;;16.55;40.85
42519;BME280;28147;47.520;18.920;2023-04-22T05:13:44;98301.81;;;17.03;40.88
42519;BME280;28147;47.520;18.920;2023-04-22T05:16:10;98293.44;;;17.10;40.98
42519;BME280;28147;47.520;18.920;2023-04-22T05:18:36;98296.31;;;17.18;40.38
42519;BME280;28147;47.520;18.920;2023-04-22T05:21:01;98281.78;;;17.59;39.35
42519;BME280;28147;47.520;18.920;2023-04-22T05:23:28;98297.81;;;18.03;38.31
42519;BME280;28147;47.520;18.920;2023-04-22T05:25:55;98294.22;;;17.89;37.58
42519;BME280;28147;47.520;18.920;2023-04-22T05:28:20;98292.63;;;17.83;36.84
42519;BME280;28147;47.520;18.920;2023-04-22T05:30:46;98294.47;;;17.87;36.95
42519;BME280;28147;47.520;18.920;2023-04-22T05:33:11;98294.69;;;17.96;34.74
42519;BME280;28147;47.520;18.920;2023-04-22T05:35:37;98297.13;;;18.45;33.99
42519;BME280;28147;47.520;18.920;2023-04-22T05:38:02;98303.72;;;18.58;32.30
42519;BME280;28147;47.520;18.920;2023-04-22T05:40:28;98306.19;;;18.31;31.64
42519;BME280;28147;47.520;18.920;2023-04-22T05:42:53;98304.19;;;18.41;31.00
42519;BME280;28147;47.520;18.920;2023-04-22T05:45:18;98304.00;;;18.57;32.92
42519;BME280;28147;47.520;18.920;2023-04-22T05:47:44;98306.63;;;18.86;32.42
42519;BME280;28147;47.520;18.920;2023-04-22T05:50:10;98304.91;;;18.95;35.80
42519;BME280;28147;47.520;18.920;2023-04-22T05:52:35;98314.66;;;18.91;33.01
42519;BME280;28147;47.520;18.920;2023-04-22T05:55:00;98312.91;;;19.38;32.39
42519;BME280;28147;47.520;18.920;2023-04-22T05:57:27;98309.72;;;19.55;31.36
42519;BME280;28147;47.520;18.920;2023-04-22T05:59:52;98311.38;;;19.69;30.34
42519;BME280;28147;47.520;18.920;2023-04-22T06:02:18;98313.16;;;19.93;29.81
42519;BME280;28147;47.520;18.920;2023-04-22T06:04:43;98313.78;;;20.17;29.89
42519;BME280;28147;47.520;18.920;2023-04-22T06:07:09;98319.81;;;20.28;30.43
42519;BME280;28147;47.520;18.920;2023-04-22T06:09:34;98310.03;;;20.46;29.81
42519;BME280;28147;47.520;18.920;2023-04-22T06:12:00;98316.81;;;20.30;28.68
42519;BME280;28147;47.520;18.920;2023-04-22T06:14:26;98315.31;;;20.37;31.16
42519;BME280;28147;47.520;18.920;2023-04-22T06:16:51;98318.03;;;20.79;30.92
42519;BME280;28147;47.520;18.920;2023-04-22T06:19:18;98316.53;;;20.31;27.79
42519;BME280;28147;47.520;18.920;2023-04-22T06:21:44;98320.63;;;20.29;27.44
42519;BME280;28147;47.520;18.920;2023-04-22T06:24:09;98325.69;;;20.03;27.82
42519;BME280;28147;47.520;18.920;2023-04-22T06:26:38;98327.34;;;19.47;28.44
42519;BME280;28147;47.520;18.920;2023-04-22T06:29:03;98325.81;;;20.25;28.39
42519;BME280;28147;47.520;18.920;2023-04-22T06:31:30;98319.38;;;20.07;26.51
42519;BME280;28147;47.520;18.920;2023-04-22T06:33:56;98324.31;;;19.35;27.41
42519;BME280;28147;47.520;18.920;2023-04-22T06:36:22;98324.31;;;19.35;26.46
42519;BME280;28147;47.520;18.920;2023-04-22T06:38:47;98328.75;;;19.96;26.75
42519;BME280;28147;47.520;18.920;2023-04-22T06:41:13;98328.09;;;19.72;26.25
42519;BME280;28147;47.520;18.920;2023-04-22T06:43:38;98326.66;;;20.67;28.17
42519;BME280;28147;47.520;18.920;2023-04-22T06:46:04;98324.88;;;20.02;26.14
42519;BME280;28147;47.520;18.920;2023-04-22T06:48:29;98328.81;;;19.58;26.62
42519;BME280;28147;47.520;18.920;2023-04-22T06:50:54;98331.66;;;19.86;26.22
42519;BME280;28147;47.520;18.920;2023-04-22T06:53:21;98328.09;;;19.72;26.01
42519;BME280;28147;47.520;18.920;2023-04-22T06:55:47;98324.59;;;19.33;26.75
42519;BME280;28147;47.520;18.920;2023-04-22T06:58:12;98334.59;;;20.03;26.00
42519;BME280;28147;47.520;18.920;2023-04-22T07:00:37;98315.31;;;20.37;25.53
42519;BME280;28147;47.520;18.920;2023-04-22T07:03:03;98325.59;;;19.56;26.85
42519;BME280;28147;47.520;18.920;2023-04-22T07:05:28;98326.66;;;19.93;25.76
42519;BME280;28147;47.520;18.920;2023-04-22T07:07:54;98330.53;;;20.33;25.15
42519;BME280;28147;47.520;18.920;2023-04-22T07:10:19;98321.78;;;20.55;25.11
42519;BME280;28147;47.520;18.920;2023-04-22T07:12:45;98326.56;;;20.86;26.06
42519;BME280;28147;47.520;18.920;2023-04-22T07:15:10;98332.88;;;20.81;25.96
42519;BME280;28147;47.520;18.920;2023-04-22T07:17:36;98324.28;;;20.65;25.94
42519;BME280;28147;47.520;18.920;2023-04-22T07:20:01;98334.28;;;20.51;26.21
42519;BME280;28147;47.520;18.920;2023-04-22T07:22:26;98335.06;;;21.07;26.51
42519;BME280;28147;47.520;18.920;2023-04-22T07:24:52;98333.09;;;20.71;24.42
42519;BME280;28147;47.520;18.920;2023-04-22T07:27:17;98327.66;;;20.71;25.34
42519;BME280;28147;47.520;18.920;2023-04-22T07:29:43;98324.28;;;20.52;25.36
42519;BME280;28147;47.520;18.920;2023-04-22T07:32:08;98327.19;;;20.55;26.77
42519;BME280;28147;47.520;18.920;2023-04-22T07:34:33;98336.38;;;19.94;26.11
42519;BME280;28147;47.520;18.920;2023-04-22T07:36:59;98328.31;;;20.08;25.56
42519;BME280;28147;47.520;18.920;2023-04-22T07:39:25;98331.00;;;20.08;25.40
42519;BME280;28147;47.520;18.920;2023-04-22T07:41:50;98330.81;;;20.18;25.38
42519;BME280;28147;47.520;18.920;2023-04-22T07:44:16;98333.13;;;20.25;25.05
42519;BME280;28147;47.520;18.920;2023-04-22T07:46:46;98334.06;;;20.89;25.75
42519;BME280;28147;47.520;18.920;2023-04-22T07:49:11;98333.97;;;20.94;25.31
42519;BME280;28147;47.520;18.920;2023-04-22T07:51:38;98335.31;;;20.23;25.72
42519;BME280;28147;47.520;18.920;2023-04-22T07:54:04;98323.38;;;20.70;25.62
42519;BME280;28147;47.520;18.920;2023-04-22T07:56:29;98331.25;;;20.94;25.94
42519;BME280;28147;47.520;18.920;2023-04-22T07:58:55;98329.91;;;20.69;26.24
42519;BME280;28147;47.520;18.920;2023-04-22T08:01:20;98330.56;;;21.52;26.43
42519;BME280;28147;47.520;18.920;2023-04-22T08:03:45;98333.56;;;21.01;26.67
42519;BME280;28147;47.520;18.920;2023-04-22T08:06:11;98339.47;;;21.03;26.76
42519;BME280;28147;47.520;18.920;2023-04-22T08:08:36;98335.06;;;21.79;26.72
42519;BME280;28147;47.520;18.920;2023-04-22T08:11:02;98335.19;;;20.88;25.22
42519;BME280;28147;47.520;18.920;2023-04-22T08:13:27;98332.97;;;21.04;25.79
42519;BME280;28147;47.520;18.920;2023-04-22T08:15:53;98332.59;;;21.69;25.21
42519;BME280;28147;47.520;18.920;2023-04-22T08:18:18;98338.09;;;21.28;24.65
42519;BME280;28147;47.520;18.920;2023-04-22T08:20:46;98337.84;;;21.97;24.79
42519;BME280;28147;47.520;18.920;2023-04-22T08:23:11;98336.19;;;21.42;24.20
42519;BME280;28147;47.520;18.920;2023-04-22T08:25:37;98337.63;;;21.84;24.08
42519;BME280;28147;47.520;18.920;2023-04-22T08:28:02;98335.44;;;21.86;24.12
42519;BME280;28147;47.520;18.920;2023-04-22T08:30:28;98339.63;;;21.34;24.35
42519;BME280;28147;47.520;18.920;2023-04-22T08:32:53;98343.16;;;21.57;23.78
42519;BME280;28147;47.520;18.920;2023-04-22T08:35:19;98344.13;;;23.08;24.67
42519;BME280;28147;47.520;18.920;2023-04-22T08:37:45;98345.28;;;21.82;24.52
42519;BME280;28147;47.520;18.920;2023-04-22T08:40:10;98338.53;;;22.02;24.44
42519;BME280;28147;47.520;18.920;2023-04-22T08:42:36;98345.06;;;21.34;25.55
42519;BME280;28147;47.520;18.920;2023-04-22T08:45:03;98343.41;;;21.92;26.18
42519;BME280;28147;47.520;18.920;2023-04-22T08:47:30;98347.91;;;22.19;24.41
42519;BME280;28147;47.520;18.920;2023-04-22T08:49:58;98336.31;;;23.33;24.98
42519;BME280;28147;47.520;18.920;2023-04-22T08:52:25;98329.44;;;23.18;24.64
42519;BME280;28147;47.520;18.920;2023-04-22T08:57:17;98330.69;;;22.23;24.66
42519;BME280;28147;47.520;18.920;2023-04-22T08:59:43;98336.56;;;22.48;25.16
42519;BME280;28147;47.520;18.920;2023-04-22T09:02:16;98338.22;;;21.59;24.74
42519;BME280;28147;47.520;18.920;2023-04-22T09:04:48;98328.56;;;21.89;25.46
42519;BME280;28147;47.520;18.920;2023-04-22T09:07:22;98337.44;;;21.81;25.39
42519;BME280;28147;47.520;18.920;2023-04-22T09:09:49;98332.84;;;23.75;25.25
42519;BME280;28147;47.520;18.920;2023-04-22T09:12:15;98337.59;;;23.61;24.13
42519;BME280;28147;47.520;18.920;2023-04-22T09:14:43;98327.22;;;23.11;23.94
42519;BME280;28147;47.520;18.920;2023-04-22T09:17:09;98331.63;;;22.98;24.86
42519;BME280;28147;47.520;18.920;2023-04-22T09:19:34;98330.09;;;23.23;24.20
42519;BME280;28147;47.520;18.920;2023-04-22T09:22:00;98337.16;;;21.60;24.29
42519;BME280;28147;47.520;18.920;2023-04-22T09:24:26;98330.16;;;22.35;24.84
42519;BME280;28147;47.520;18.920;2023-04-22T09:26:54;98326.53;;;22.48;24.78
42519;BME280;28147;47.520;18.920;2023-04-22T09:29:19;98326.78;;;22.78;24.99
42519;BME280;28147;47.520;18.920;2023-04-22T09:31:49;98330.41;;;23.91;24.55
42519;BME280;28147;47.520;18.920;2023-04-22T09:34:14;98328.13;;;22.98;24.85
42519;BME280;28147;47.520;18.920;2023-04-22T09:36:41;98329.56;;;22.47;26.15
42519;BME280;28147;47.520;18.920;2023-04-22T09:39:07;98317.22;;;22.09;24.70
42519;BME280;28147;47.520;18.920;2023-04-22T09:41:35;98328.72;;;21.11;26.70
42519;BME280;28147;47.520;18.920;2023-04-22T09:44:02;98320.88;;;20.87;25.81
42519;BME280;28147;47.520;18.920;2023-04-22T09:46:29;98322.72;;;21.73;25.60
42519;BME280;28147;47.520;18.920;2023-04-22T09:48:56;98319.88;;;22.72;23.73
42519;BME280;28147;47.520;18.920;2023-04-22T09:51:22;98315.00;;;22.91;23.52
42519;BME280;28147;47.520;18.920;2023-04-22T09:56:39;98299.28;;;22.71;23.99
42519;BME280;28147;47.520;18.920;2023-04-22T09:59:05;98305.31;;;22.50;25.60
42519;BME280;28147;47.520;18.920;2023-04-22T10:01:37;98300.50;;;21.62;26.24
42519;BME280;28147;47.520;18.920;2023-04-22T10:04:08;98305.84;;;21.76;26.65
42519;BME280;28147;47.520;18.920;2023-04-22T10:06:34;98301.00;;;21.65;26.78
42519;BME280;28147;47.520;18.920;2023-04-22T10:09:00;98300.00;;;21.24;26.59
42519;BME280;28147;47.520;18.920;2023-04-22T10:11:26;98295.06;;;21.40;27.07
42519;BME280;28147;47.520;18.920;2023-04-22T10:13:51;98300.75;;;21.16;26.83
42519;BME280;28147;47.520;18.920;2023-04-22T10:16:19;98298.38;;;21.82;26.75
42519;BME280;28147;47.520;18.920;2023-04-22T10:18:46;98292.91;;;22.27;28.84
42519;BME280;28147;47.520;18.920;2023-04-22T10:21:13;98286.56;;;22.31;27.93
42519;BME280;28147;47.520;18.920;2023-04-22T10:23:45;98292.84;;;22.49;26.65
42519;BME280;28147;47.520;18.920;2023-04-22T10:26:11;98288.97;;;22.42;26.65
42519;BME280;28147;47.520;18.920;2023-04-22T10:28:42;98296.16;;;22.38;26.65
42519;BME280;28147;47.520;18.920;2023-04-22T10:31:20;98289.31;;;22.40;26.49
42519;BME280;28147;47.520;18.920;2023-04-22T10:33:46;98292.97;;;22.36;25.04
42519;BME280;28147;47.520;18.920;2023-04-22T10:36:18;98291.34;;;22.03;25.08
42519;BME280;28147;47.520;18.920;2023-04-22T10:41:28;98284.94;;;21.99;26.60
42519;BME280;28147;47.520;18.920;2023-04-22T10:43:59;98285.16;;;21.58;28.12
42519;BME280;28147;47.520;18.920;2023-04-22T10:49:15;98289.38;;;21.28;26.57
42519;BME280;28147;47.520;18.920;2023-04-22T10:51:50;98291.16;;;21.69;27.47
42519;BME280;28147;47.520;18.920;2023-04-22T10:57:07;98287.81;;;21.94;26.63
42519;BME280;28147;47.520;18.920;2023-04-22T11:02:05;98286.50;;;22.23;29.03
42519;BME280;28147;47.520;18.920;2023-04-22T11:04:31;98288.44;;;22.22;29.07
42519;BME280;28147;47.520;18.920;2023-04-22T11:09:53;98282.06;;;21.96;29.06
42519;BME280;28147;47.520;18.920;2023-04-22T11:15:05;98286.03;;;22.21;28.45
42519;BME280;28147;47.520;18.920;2023-04-22T11:17:31;98289.31;;;22.40;29.33
42519;BME280;28147;47.520;18.920;2023-04-22T11:19:57;98276.44;;;22.54;28.56
42519;BME280;28147;47.520;18.920;2023-04-22T11:22:23;98275.47;;;22.50;27.30
42519;BME280;28147;47.520;18.920;2023-04-22T11:24:55;98278.63;;;23.53;25.70
42519;BME280;28147;47.520;18.920;2023-04-22T11:27:21;98279.06;;;23.90;25.06
42519;BME280;28147;47.520;18.920;2023-04-22T11:30:10;98277.66;;;23.40;25.62
42519;BME280;28147;47.520;18.920;2023-04-22T11:32:41;98289.06;;;22.59;24.98
42519;BME280;28147;47.520;18.920;2023-04-22T11:35:32;98289.75;;;22.82;23.89
42519;BME280;28147;47.520;18.920;2023-04-22T11:38:03;98284.88;;;22.13;25.00
42519;BME280;28147;47.520;18.920;2023-04-22T11:40:31;98282.44;;;22.11;25.10
42519;BME280;28147;47.520;18.920;2023-04-22T11:42:58;98281.75;;;21.97;25.31
42519;BME280;28147;47.520;18.920;2023-04-22T11:45:24;98284.16;;;20.95;26.43
42519;BME280;28147;47.520;18.920;2023-04-22T11:47:50;98280.53;;;21.58;25.80
42519;BME280;28147;47.520;18.920;2023-04-22T11:50:17;98265.59;;;21.92;28.17
42519;BME280;28147;47.520;18.920;2023-04-22T11:52:53;98281.47;;;22.39;28.73
42519;BME280;28147;47.520;18.920;2023-04-22T11:57:51;98279.06;;;21.97;25.80
42519;BME280;28147;47.520;18.920;2023-04-22T12:00:17;98277.59;;;22.00;25.90
42519;BME280;28147;47.520;18.920;2023-04-22T12:02:53;98279.09;;;21.16;26.18
42519;BME280;28147;47.520;18.920;2023-04-22T12:05:19;98277.00;;;21.49;25.82
42519;BME280;28147;47.520;18.920;2023-04-22T12:07:45;98267.94;;;21.54;25.76
42519;BME280;28147;47.520;18.920;2023-04-22T12:10:10;98271.84;;;21.70;25.33
42519;BME280;28147;47.520;18.920;2023-04-22T12:12:38;98271.25;;;21.73;25.27
42519;BME280;28147;47.520;18.920;2023-04-22T12:15:08;98265.03;;;22.04;25.91
42519;BME280;28147;47.520;18.920;2023-04-22T12:17:35;98271.59;;;22.11;26.66
42519;BME280;28147;47.520;18.920;2023-04-22T12:20:00;98262.97;;;22.32;26.64
42519;BME280;28147;47.520;18.920;2023-04-22T12:22:27;98266.47;;;22.32;25.99
42519;BME280;28147;47.520;18.920;2023-04-22T12:24:53;98269.44;;;22.62;28.08
42519;BME280;28147;47.520;18.920;2023-04-22T12:27:19;98259.84;;;22.65;29.25
42519;BME280;28147;47.520;18.920;2023-04-22T12:29:53;98253.63;;;22.73;29.77
42519;BME280;28147;47.520;18.920;2023-04-22T12:32:24;98261.59;;;22.61;27.21
42519;BME280;28147;47.520;18.920;2023-04-22T12:34:50;98256.94;;;22.44;27.30
42519;BME280;28147;47.520;18.920;2023-04-22T12:37:16;98259.25;;;22.85;27.53
42519;BME280;28147;47.520;18.920;2023-04-22T12:39:42;98256.75;;;23.15;27.15
42519;BME280;28147;47.520;18.920;2023-04-22T12:42:08;98254.66;;;22.94;26.17
42519;BME280;28147;47.520;18.920;2023-04-22T12:44:34;98249.44;;;22.09;25.51
42519;BME280;28147;47.520;18.920;2023-04-22T12:47:00;98255.56;;;21.93;25.08
42519;BME280;28147;47.520;18.920;2023-04-22T12:49:26;98250.25;;;22.10;25.23
42519;BME280;28147;47.520;18.920;2023-04-22T12:51:51;98249.50;;;22.18;25.57
42519;BME280;28147;47.520;18.920;2023-04-22T12:54:20;98241.66;;;21.85;26.50
42519;BME280;28147;47.520;18.920;2023-04-22T12:56:46;98245.22;;;22.26;27.43
42519;BME280;28147;47.520;18.920;2023-04-22T12:59:12;98245.41;;;22.29;26.44
42519;BME280;28147;47.520;18.920;2023-04-22T13:01:37;98236.13;;;22.22;27.00
42519;BME280;28147;47.520;18.920;2023-04-22T13:04:03;98240.38;;;22.14;26.14
42519;BME280;28147;47.520;18.920;2023-04-22T13:06:29;98232.44;;;22.18;25.46
42519;BME280;28147;47.520;18.920;2023-04-22T13:08:56;98233.16;;;22.49;26.24